createdAt,value
2022-12-23T00:00:59.662Z,41.67
2022-12-23T00:03:27.812Z,35.72
2022-12-23T00:05:55.674Z,33.33
2022-12-23T00:08:23.526Z,34.92
2022-12-23T00:10:52.998Z,30.73
2022-12-23T00:13:39.585Z,37.45
2022-12-23T00:16:12.116Z,35.85
2022-12-23T00:18:39.845Z,41.25
2022-12-23T00:21:10.733Z,40.90
2022-12-23T00:23:39.720Z,45.72
2022-12-23T00:26:07.608Z,48.33
2022-12-23T00:28:35.450Z,41.60
2022-12-23T00:31:04.893Z,46.72
2022-12-23T00:33:37.728Z,41.20
2022-12-23T00:36:25.251Z,42.97
2022-12-23T00:39:11.330Z,40.97
2022-12-23T00:41:57.515Z,44.55
2022-12-23T00:44:25.123Z,39.78
2022-12-23T00:46:52.872Z,37.15
2022-12-23T00:49:39.092Z,37.65
2022-12-23T00:52:09.266Z,39.85
2022-12-23T00:54:36.784Z,40.10
2022-12-23T00:57:04.385Z,42.00
2022-12-23T00:59:32.096Z,43.70
2022-12-23T01:02:18.462Z,41.88
2022-12-23T01:05:04.628Z,33.90
2022-12-23T01:07:32.647Z,38.30
2022-12-23T01:10:00.408Z,35.58
2022-12-23T01:12:28.249Z,33.97
2022-12-23T01:14:56.098Z,35.05
2022-12-23T01:17:23.912Z,34.72
2022-12-23T01:19:51.782Z,42.22
2022-12-23T01:22:19.469Z,32.83
2022-12-23T01:24:47.152Z,32.63
2022-12-23T01:27:14.826Z,38.22
2022-12-23T01:29:42.452Z,31.90
2022-12-23T01:32:10.237Z,33.85
2022-12-23T01:34:37.998Z,33.55
2022-12-23T01:37:05.890Z,31.52
2022-12-23T01:39:33.647Z,31.77
2022-12-23T01:42:20.174Z,28.85
2022-12-23T01:45:06.177Z,28.45
2022-12-23T01:47:51.847Z,29.08
2022-12-23T01:50:30.504Z,30.23
2022-12-23T01:53:08.052Z,27.77
2022-12-23T01:55:41.236Z,30.90
2022-12-23T01:58:21.431Z,32.67
2022-12-23T02:01:07.743Z,34.47
2022-12-23T02:03:44.939Z,40.65
2022-12-23T02:06:51.887Z,38.35
2022-12-23T02:09:25.278Z,46.45
2022-12-23T02:12:21.585Z,64.85
2022-12-23T02:15:46.797Z,76.47
2022-12-23T02:18:29.522Z,73.57
2022-12-23T02:21:19.230Z,72.10
2022-12-23T02:24:11.808Z,61.25
2022-12-23T02:27:26.013Z,59.53
2022-12-23T02:30:14.969Z,49.03
2022-12-23T02:33:12.239Z,53.83
2022-12-23T02:35:59.825Z,45.47
2022-12-23T02:38:57.300Z,50.00
2022-12-23T02:41:49.906Z,43.95
2022-12-23T02:44:31.320Z,40.50
2022-12-23T02:47:01.014Z,49.15
2022-12-23T02:49:36.407Z,43.10
2022-12-23T02:52:06.200Z,40.78
2022-12-23T02:54:37.242Z,43.50
2022-12-23T02:57:05.127Z,54.05
2022-12-23T02:59:39.778Z,66.22
2022-12-23T03:02:07.614Z,60.53
2022-12-23T03:04:35.419Z,56.95
2022-12-23T03:07:07.731Z,62.60
2022-12-23T03:09:58.237Z,65.72
2022-12-23T03:12:52.039Z,103.80
2022-12-23T03:15:45.772Z,93.13
2022-12-23T03:18:51.286Z,94.13
2022-12-23T03:21:37.723Z,83.30
2022-12-23T03:24:13.165Z,87.57
2022-12-23T03:26:45.269Z,67.53
2022-12-23T03:29:21.767Z,62.33
2022-12-23T03:31:49.354Z,58.45
2022-12-23T03:34:20.291Z,52.50
2022-12-23T03:36:49.754Z,66.85
2022-12-23T03:39:19.926Z,60.10
2022-12-23T03:41:55.962Z,59.03
2022-12-23T03:44:28.346Z,62.55
2022-12-23T03:47:05.280Z,64.00
2022-12-23T03:49:44.908Z,58.83
2022-12-23T03:52:20.792Z,70.32
2022-12-23T03:54:53.321Z,80.57
2022-12-23T03:57:22.245Z,69.43
2022-12-23T03:59:51.680Z,61.65
2022-12-23T04:02:45.595Z,67.18
2022-12-23T04:05:23.665Z,58.05
2022-12-23T04:08:00.536Z,66.60
2022-12-23T04:10:28.214Z,60.80
2022-12-23T04:12:57.352Z,63.60
2022-12-23T04:15:25.998Z,62.65
2022-12-23T04:17:54.019Z,82.90
2022-12-23T04:20:22.121Z,78.25
2022-12-23T04:22:49.822Z,62.75
2022-12-23T04:25:17.705Z,65.15
2022-12-23T04:27:45.379Z,70.25
2022-12-23T04:30:14.091Z,75.38
2022-12-23T04:32:42.419Z,62.83
2022-12-23T04:35:10.570Z,69.57
2022-12-23T04:37:38.520Z,72.55
2022-12-23T04:40:07.050Z,82.15
2022-12-23T04:42:34.964Z,85.03
2022-12-23T04:45:03.024Z,85.22
2022-12-23T04:47:30.908Z,78.75
2022-12-23T04:49:58.713Z,73.93
2022-12-23T04:52:26.515Z,71.10
2022-12-23T04:54:54.238Z,58.95
2022-12-23T04:57:22.026Z,50.30
2022-12-23T04:59:49.764Z,49.53
2022-12-23T05:02:19.783Z,50.35
2022-12-23T05:04:47.502Z,49.65
2022-12-23T05:07:15.577Z,48.20
2022-12-23T05:09:43.361Z,51.33
2022-12-23T05:12:11.397Z,45.90
2022-12-23T05:14:39.781Z,42.97
2022-12-23T05:17:08.183Z,42.65
2022-12-23T05:19:36.063Z,45.20
2022-12-23T05:22:03.928Z,47.70
2022-12-23T05:24:31.627Z,39.15
2022-12-23T05:27:00.426Z,47.72
2022-12-23T05:29:28.537Z,35.30
2022-12-23T05:31:56.265Z,38.30
2022-12-23T05:34:24.102Z,36.72
2022-12-23T05:36:51.835Z,41.53
2022-12-23T05:39:19.546Z,42.33
2022-12-23T05:41:47.251Z,42.13
2022-12-23T05:44:15.068Z,43.63
2022-12-23T05:46:43.017Z,52.58
2022-12-23T05:49:10.807Z,62.75
2022-12-23T05:51:38.492Z,82.07
2022-12-23T05:54:06.190Z,69.63
2022-12-23T05:56:34.293Z,59.90
2022-12-23T05:59:02.109Z,50.58
2022-12-23T06:01:30.070Z,53.90
2022-12-23T06:03:58.212Z,45.40
2022-12-23T06:06:25.948Z,47.15
2022-12-23T06:08:59.340Z,48.92
2022-12-23T06:11:28.157Z,45.65
2022-12-23T06:13:55.971Z,50.15
2022-12-23T06:16:23.773Z,50.42
2022-12-23T06:18:55.472Z,47.90
2022-12-23T06:21:23.176Z,52.88
2022-12-23T06:23:51.390Z,51.75
2022-12-23T06:26:19.172Z,47.92
2022-12-23T06:28:46.774Z,50.35
2022-12-23T06:31:14.704Z,46.38
2022-12-23T06:33:42.468Z,47.17
2022-12-23T06:36:10.292Z,45.45
2022-12-23T06:38:38.403Z,48.28
2022-12-23T06:41:06.144Z,52.58
2022-12-23T06:43:33.726Z,44.00
2022-12-23T06:46:01.345Z,37.30
2022-12-23T06:48:28.903Z,47.20
2022-12-23T06:50:56.529Z,70.85
2022-12-23T06:53:24.123Z,43.28
2022-12-23T06:56:01.392Z,73.95
2022-12-23T06:58:30.148Z,33.97
2022-12-23T07:00:57.974Z,63.35
2022-12-23T07:03:25.696Z,31.75
2022-12-23T07:05:54.449Z,35.25
2022-12-23T07:08:22.204Z,38.90
2022-12-23T07:10:49.794Z,59.88
2022-12-23T07:13:17.325Z,37.30
2022-12-23T07:15:44.949Z,37.90
2022-12-23T07:18:12.462Z,38.90
2022-12-23T07:20:40.044Z,43.28
2022-12-23T07:23:08.008Z,37.17
2022-12-23T07:25:35.961Z,36.95
2022-12-23T07:28:03.766Z,50.78
2022-12-23T07:30:32.198Z,42.00
2022-12-23T07:32:59.883Z,66.82
2022-12-23T07:35:27.365Z,46.85
2022-12-23T07:37:55.750Z,44.58
2022-12-23T07:40:23.718Z,39.97
2022-12-23T07:42:57.061Z,42.03
2022-12-23T07:45:28.515Z,40.55
2022-12-23T07:50:24.158Z,51.63
2022-12-23T07:52:52.359Z,37.42
2022-12-23T07:55:20.134Z,45.28
2022-12-23T07:57:51.514Z,44.05
2022-12-23T08:02:46.991Z,40.22
2022-12-23T08:05:15.353Z,50.65
2022-12-23T08:07:45.173Z,48.85
2022-12-23T08:10:13.018Z,54.75
2022-12-23T08:12:40.770Z,51.20
2022-12-23T08:15:09.465Z,53.40
2022-12-23T08:17:37.340Z,46.50
2022-12-23T08:20:05.437Z,41.28
2022-12-23T08:22:33.288Z,43.15
2022-12-23T08:25:01.186Z,46.05
2022-12-23T08:27:28.768Z,46.63
2022-12-23T08:29:56.323Z,46.72
2022-12-23T08:32:27.343Z,43.20
2022-12-23T08:34:57.409Z,43.75
2022-12-23T08:37:25.297Z,42.97
2022-12-23T08:39:52.996Z,49.58
2022-12-23T08:42:20.900Z,45.55
2022-12-23T08:44:48.533Z,49.55
2022-12-23T08:47:16.322Z,43.75
2022-12-23T08:49:44.001Z,47.10
2022-12-23T08:52:12.856Z,47.75
2022-12-23T08:54:40.611Z,43.47
2022-12-23T08:57:08.216Z,44.38
2022-12-23T08:59:35.938Z,46.40
2022-12-23T09:02:04.255Z,46.25
2022-12-23T09:04:32.310Z,50.33
2022-12-23T09:07:01.654Z,48.10
2022-12-23T09:09:29.611Z,42.60
2022-12-23T09:11:57.204Z,43.78
2022-12-23T09:14:25.331Z,45.42
2022-12-23T09:16:53.270Z,49.22
2022-12-23T09:19:20.958Z,45.22
2022-12-23T09:21:48.921Z,45.58
2022-12-23T09:24:16.569Z,40.63
2022-12-23T09:26:44.174Z,40.45
2022-12-23T09:29:11.742Z,39.42
2022-12-23T09:31:39.450Z,40.88
2022-12-23T09:34:07.343Z,39.85
2022-12-23T09:36:35.230Z,35.97
2022-12-23T09:39:02.781Z,42.00
2022-12-23T09:41:30.241Z,48.22
2022-12-23T09:44:19.616Z,42.05
2022-12-23T09:46:51.455Z,38.55
2022-12-23T09:49:19.146Z,42.35
2022-12-23T09:51:46.944Z,39.65
2022-12-23T09:54:25.203Z,37.08
2022-12-23T09:57:16.966Z,40.28
2022-12-23T10:00:07.128Z,37.47
2022-12-23T10:03:08.772Z,37.38
2022-12-23T10:05:44.911Z,37.67
2022-12-23T10:08:27.937Z,44.28
2022-12-23T10:11:00.527Z,39.22
2022-12-23T10:13:32.170Z,38.15
2022-12-23T10:16:05.201Z,40.97
2022-12-23T10:18:48.490Z,37.45
2022-12-23T10:21:35.233Z,36.83
2022-12-23T10:24:07.492Z,38.65
2022-12-23T10:26:39.737Z,38.88
2022-12-23T10:29:19.269Z,38.78
2022-12-23T10:31:56.925Z,41.25
2022-12-23T10:34:38.144Z,39.25
2022-12-23T10:37:11.998Z,41.08
2022-12-23T10:39:42.623Z,45.10
2022-12-23T10:42:19.285Z,42.53
2022-12-23T10:44:54.193Z,38.15
2022-12-23T10:47:29.188Z,38.55
2022-12-23T10:50:16.241Z,44.83
2022-12-23T10:52:45.358Z,36.10
2022-12-23T10:55:39.404Z,39.00
2022-12-23T10:58:18.449Z,39.22
2022-12-23T11:00:52.254Z,41.08
2022-12-23T11:03:36.997Z,41.72
2022-12-23T11:06:04.748Z,42.88
2022-12-23T11:08:32.396Z,42.70
2022-12-23T11:11:01.469Z,41.55
2022-12-23T11:13:32.334Z,40.83
2022-12-23T11:16:19.842Z,36.20
2022-12-23T11:19:09.673Z,38.67
2022-12-23T11:21:37.268Z,35.95
2022-12-23T11:24:25.379Z,44.20
2022-12-23T11:27:00.977Z,37.22
2022-12-23T11:29:39.003Z,40.13
2022-12-23T11:32:35.528Z,42.22
2022-12-23T11:35:04.149Z,37.20
2022-12-23T11:37:41.110Z,41.83
2022-12-23T11:40:21.585Z,41.50
2022-12-23T11:42:53.541Z,39.30
2022-12-23T11:45:24.940Z,40.33
2022-12-23T11:47:52.634Z,43.45
2022-12-23T11:50:36.966Z,37.83
2022-12-23T11:53:14.688Z,40.60
2022-12-23T11:56:00.337Z,48.53
2022-12-23T11:58:28.965Z,54.67
2022-12-23T12:01:00.784Z,40.55
2022-12-23T12:03:32.671Z,46.33
2022-12-23T12:06:04.215Z,67.30
2022-12-23T12:08:36.743Z,36.92
2022-12-23T12:11:17.001Z,36.10
2022-12-23T12:13:48.732Z,34.13
2022-12-23T12:16:31.684Z,38.47
2022-12-23T12:19:05.671Z,37.97
2022-12-23T12:21:36.972Z,37.92
2022-12-23T12:24:25.677Z,34.13
2022-12-23T12:26:54.852Z,38.45
2022-12-23T12:29:45.829Z,36.03
2022-12-23T12:33:05.857Z,39.97
2022-12-23T12:35:53.996Z,39.90
2022-12-23T12:38:26.212Z,39.47
2022-12-23T12:41:00.467Z,50.92
2022-12-23T12:43:31.799Z,42.03
2022-12-23T12:46:20.025Z,37.33
2022-12-23T12:48:59.919Z,47.97
2022-12-23T12:51:42.790Z,32.78
2022-12-23T12:54:22.986Z,45.60
2022-12-23T12:56:58.181Z,42.08
2022-12-23T12:59:28.539Z,37.55
2022-12-23T13:02:10.833Z,37.45
2022-12-23T13:04:48.066Z,40.75
2022-12-23T13:07:24.498Z,37.05
2022-12-23T13:10:00.272Z,37.00
2022-12-23T13:12:44.829Z,38.35
2022-12-23T13:15:24.331Z,43.83
2022-12-23T13:18:01.921Z,41.53
2022-12-23T13:20:41.110Z,44.72
2022-12-23T13:23:41.629Z,42.78
2022-12-23T13:26:18.898Z,46.15
2022-12-23T13:28:48.954Z,42.00
